Aérodrome :
LOGIN :

S'inscrire | Disclaimer

   EN    FR    IT 

 










Légende :    VFR   VFR Marginal   IFR   IFR Intensif   IFR Très Intensif
Visi : 
Plafond : 
>= 8 km
>= 3000ft
5 à 8 km
1000 à 3000 ft
1500m à 5 km
500 à 1000 ft
800 à 1500m
200 à 500 ft
< 800m
< 200 ft
Symboles :   Orages  Brouillard  Fortes neiges  Fortes précipitations  Vent > 20 kt
SIGMETs :   Divers  Orages  Givrage  Turbulence  Onde Orograph.  Cendres Volcan.






- Altitude de l'aérodrome : 443 ft
- Code IATA : GNA


UMMG - Grodno

DERNIER METAR :
  • 280730Z 21004MPS 7000 BKN003 09/08 Q1017 R17/CLRD// NOSIG RMK QBB110

METARs EXPIRÉS :
  • 280700Z 20004MPS 6000 BKN003 09/08 Q1017 R17/CLRD// NOSIG RMK QBB110
  • 280630Z 20004MPS 7000 BKN004 BKN066 09/07 Q1016 R17/CLRD// NOSIG RMK QBB140
  • 280600Z 21004MPS 7000 BKN005 BKN066 09/07 Q1016 R17/CLRD// NOSIG RMK QBB160
  • 280530Z 21004MPS 7000 BKN007 BKN066 08/07 Q1016 R17/CLRD// NOSIG
  • 280500Z 20003MPS 8000 BKN009 BKN066 08/07 Q1016 R17/CLRD// NOSIG

TAF AMD TAF UMMG
Valide du 28 à 06h jusqu'au 28 à 15h UTC


280632Z 2806/2815 20003G08MPS 6000 BKN009 BKN020
TEMPO 2806/2809 22003G08MPS 2500 -SHRA BR BKN003 SCT012CB



MET'MAP, la Météo Aéronautique d'un coup d'oeil ! - Copyright ORBIFLY Décembre 2007 - Disclaimer

ORBIFLY MET'MAP TEAM :

Programmation & Développement : Alexandra Zaïnal
Sur une idée originale de : Baudouin d'Aumeries
Assistance à la programmation : Marc-Olivier Méhu
Soutien technique & logistique : Manuel Goepfert

Contact : metmap@orbifly.com




SOURCES & CREDITS :

   NOAA